createdAt,value
2019-06-08T00:00:16.800Z,100406.73
2019-06-08T00:01:22.842Z,100408.91
2019-06-08T00:02:27.650Z,100414.63
2019-06-08T00:03:32.474Z,100410.64
2019-06-08T00:04:37.103Z,100401.88
2019-06-08T00:05:42.191Z,100408.22
2019-06-08T00:06:47.235Z,100402.02
2019-06-08T00:07:52.358Z,100396.80
2019-06-08T00:08:57.260Z,100395.00
2019-06-08T00:10:02.105Z,100395.70
2019-06-08T00:11:06.767Z,100394.69
2019-06-08T00:12:12.892Z,100392.70
2019-06-08T00:13:19.729Z,100396.15
2019-06-08T00:14:25.570Z,100397.11
2019-06-08T00:15:30.507Z,100395.55
2019-06-08T00:16:35.527Z,100393.59
2019-06-08T00:17:40.134Z,100393.19
2019-06-08T00:18:45.404Z,100392.03
2019-06-08T00:19:50.815Z,100390.52
2019-06-08T00:20:56.057Z,100389.75
2019-06-08T00:22:00.743Z,100383.64
2019-06-08T00:23:05.698Z,100386.25
2019-06-08T00:24:10.395Z,100382.08
2019-06-08T00:25:15.880Z,100387.86
2019-06-08T00:26:22.154Z,100393.13
2019-06-08T00:27:27.217Z,100390.38
2019-06-08T00:28:32.027Z,100396.48
2019-06-08T00:29:37.201Z,100403.36
2019-06-08T00:30:41.813Z,100399.06
2019-06-08T00:31:46.799Z,100404.38
2019-06-08T00:32:51.518Z,100403.55
2019-06-08T00:33:56.317Z,100403.60
2019-06-08T00:35:01.115Z,100403.78
2019-06-08T00:36:05.946Z,100406.59
2019-06-08T00:37:10.557Z,100408.69
2019-06-08T00:38:16.821Z,100412.55
2019-06-08T00:39:22.918Z,100413.09
2019-06-08T00:40:27.865Z,100417.69
2019-06-08T00:41:33.029Z,100420.53
2019-06-08T00:42:38.115Z,100420.30
2019-06-08T00:43:42.717Z,100423.01
2019-06-08T00:44:48.017Z,100416.77
2019-06-08T00:45:52.614Z,100421.62
2019-06-08T00:46:57.444Z,100417.23
2019-06-08T00:48:03.215Z,100404.16
2019-06-08T00:49:08.105Z,100396.41
2019-06-08T00:50:13.142Z,100395.86
2019-06-08T00:51:18.993Z,100405.95
2019-06-08T00:52:23.630Z,100417.78
2019-06-08T00:53:29.629Z,100428.88
2019-06-08T00:54:34.743Z,100424.52
2019-06-08T00:55:39.773Z,100418.79
2019-06-08T00:56:44.513Z,100410.81
2019-06-08T00:57:49.609Z,100416.04
2019-06-08T00:58:54.283Z,100429.84
2019-06-08T00:59:59.319Z,100437.73
2019-06-08T01:01:05.150Z,100428.65
2019-06-08T01:02:10.341Z,100436.31
2019-06-08T01:03:15.325Z,100429.84
2019-06-08T01:04:20.652Z,100434.29
2019-06-08T01:05:26.101Z,100440.53
2019-06-08T01:06:31.475Z,100437.73
2019-06-08T01:07:36.906Z,100442.82
2019-06-08T01:08:42.335Z,100434.75
2019-06-08T01:09:47.030Z,100442.67
2019-06-08T01:10:53.107Z,100440.39
2019-06-08T01:11:57.986Z,100439.23
2019-06-08T01:13:02.993Z,100442.03
2019-06-08T01:14:08.054Z,100442.81
2019-06-08T01:15:14.946Z,100441.48
2019-06-08T01:16:20.889Z,100444.36
2019-06-08T01:17:27.455Z,100438.43
2019-06-08T01:18:33.367Z,100440.45
2019-06-08T01:19:38.270Z,100446.00
2019-06-08T01:20:42.900Z,100445.80
2019-06-08T01:21:48.055Z,100450.41
2019-06-08T01:22:54.106Z,100450.51
2019-06-08T01:23:58.931Z,100450.33
2019-06-08T01:25:03.958Z,100455.65
2019-06-08T01:26:08.937Z,100461.20
2019-06-08T01:27:13.951Z,100464.34
2019-06-08T01:28:19.949Z,100466.50
2019-06-08T01:29:24.655Z,100461.90
2019-06-08T01:30:30.450Z,100467.31
2019-06-08T01:31:35.293Z,100473.42
2019-06-08T01:32:40.554Z,100479.21
2019-06-08T01:33:45.166Z,100481.47
2019-06-08T01:34:50.617Z,100475.37
2019-06-08T01:35:55.418Z,100483.20
2019-06-08T01:37:00.257Z,100480.91
2019-06-08T01:38:05.579Z,100484.36
2019-06-08T01:39:10.404Z,100491.11
2019-06-08T01:40:15.917Z,100491.42
2019-06-08T01:41:21.315Z,100489.16
2019-06-08T01:42:25.996Z,100486.65
2019-06-08T01:43:31.790Z,100489.69
2019-06-08T01:44:36.719Z,100492.91
2019-06-08T01:45:41.755Z,100491.20
2019-06-08T01:46:46.358Z,100491.02
2019-06-08T01:47:51.186Z,100494.95
2019-06-08T01:48:55.800Z,100492.75
2019-06-08T01:50:00.895Z,100487.83
2019-06-08T01:51:05.659Z,100495.83
2019-06-08T01:52:10.549Z,100496.44
2019-06-08T01:53:15.170Z,100493.63
2019-06-08T01:54:19.989Z,100499.27
2019-06-08T01:55:25.134Z,100499.86
2019-06-08T01:56:31.231Z,100503.39
2019-06-08T01:57:36.220Z,100496.58
2019-06-08T01:58:41.044Z,100505.34
2019-06-08T01:59:45.656Z,100508.11
2019-06-08T02:00:50.502Z,100508.48
2019-06-08T02:01:55.110Z,100504.89
2019-06-08T02:03:00.010Z,100510.67
2019-06-08T02:04:05.346Z,100510.03
2019-06-08T02:05:10.513Z,100510.03
2019-06-08T02:06:15.141Z,100513.47
2019-06-08T02:07:20.416Z,100516.69
2019-06-08T02:08:26.542Z,100522.02
2019-06-08T02:09:32.710Z,100522.80
2019-06-08T02:10:37.586Z,100525.09
2019-06-08T02:11:42.749Z,100515.60
2019-06-08T02:12:47.497Z,100521.16
2019-06-08T02:13:52.327Z,100524.31
2019-06-08T02:14:56.939Z,100524.75
2019-06-08T02:16:01.866Z,100528.60
2019-06-08T02:17:06.618Z,100531.86
2019-06-08T02:18:11.515Z,100532.82
2019-06-08T02:19:16.126Z,100538.46
2019-06-08T02:20:22.561Z,100536.17
2019-06-08T02:21:27.194Z,100535.14
2019-06-08T02:22:33.056Z,100534.74
2019-06-08T02:23:37.711Z,100538.81
2019-06-08T02:24:42.538Z,100539.43
2019-06-08T02:25:47.474Z,100541.53
2019-06-08T02:26:52.304Z,100543.09
2019-06-08T02:27:57.554Z,100537.70
2019-06-08T02:29:02.480Z,100563.55
2019-06-08T02:30:15.951Z,100567.58
2019-06-08T02:31:20.794Z,100573.24
2019-06-08T02:32:25.398Z,100574.69
2019-06-08T02:33:30.398Z,100592.64
2019-06-08T02:34:37.900Z,100586.69
2019-06-08T02:35:42.202Z,100598.30
2019-06-08T02:36:46.821Z,100605.10
2019-06-08T02:37:51.633Z,100609.42
2019-06-08T02:38:56.240Z,100610.52
2019-06-08T02:40:01.394Z,100624.44
2019-06-08T02:41:06.754Z,100620.12
2019-06-08T02:42:11.642Z,100609.28
2019-06-08T02:43:16.306Z,100629.55
2019-06-08T02:44:21.117Z,100629.44
2019-06-08T02:45:25.789Z,100632.09
2019-06-08T02:46:31.011Z,100639.81
2019-06-08T02:47:36.697Z,100642.61
2019-06-08T02:49:02.240Z,100645.73
2019-06-08T02:49:48.155Z,100659.44
2019-06-08T02:50:55.547Z,100662.43
2019-06-08T02:52:01.343Z,100669.88
2019-06-08T02:53:06.479Z,100662.43
2019-06-08T02:54:12.499Z,100667.26
2019-06-08T02:55:17.724Z,100664.35
2019-06-08T02:56:23.717Z,100679.20
2019-06-08T02:57:31.007Z,100678.66
2019-06-08T02:58:39.057Z,100677.49
2019-06-08T02:59:44.100Z,100680.53
2019-06-08T03:00:49.730Z,100677.41
2019-06-08T03:01:58.478Z,100673.88
2019-06-08T03:03:06.687Z,100669.64
2019-06-08T03:04:13.030Z,100677.16
2019-06-08T03:05:18.040Z,100684.41
2019-06-08T03:06:23.342Z,100682.02
2019-06-08T03:07:32.278Z,100687.02
2019-06-08T03:08:40.954Z,100695.20
2019-06-08T03:09:47.504Z,100688.30
2019-06-08T03:10:54.286Z,100691.75
2019-06-08T03:12:02.424Z,100685.89
2019-06-08T03:13:07.344Z,100684.16
2019-06-08T03:14:12.748Z,100687.60
2019-06-08T03:15:20.989Z,100682.98
2019-06-08T03:16:25.863Z,100679.58
2019-06-08T03:17:31.108Z,100684.19
2019-06-08T03:18:37.810Z,100685.52
2019-06-08T03:19:43.998Z,100681.53
2019-06-08T03:20:48.632Z,100692.09
2019-06-08T03:21:53.463Z,100698.28
2019-06-08T03:22:58.532Z,100698.70
2019-06-08T03:24:03.360Z,100716.39
2019-06-08T03:25:08.085Z,100711.45
2019-06-08T03:26:13.090Z,100707.46
2019-06-08T03:27:18.023Z,100718.26
2019-06-08T03:28:23.001Z,100716.77
2019-06-08T03:29:27.945Z,100714.03
2019-06-08T03:30:35.311Z,100713.78
2019-06-08T03:31:49.735Z,100704.88
2019-06-08T03:32:55.041Z,100703.73
2019-06-08T03:33:56.161Z,100694.21
2019-06-08T03:34:59.799Z,100690.38
2019-06-08T03:36:04.532Z,100689.43
2019-06-08T03:37:09.825Z,100685.91
2019-06-08T03:38:14.952Z,100680.66
2019-06-08T03:39:20.129Z,100683.03
2019-06-08T03:40:24.978Z,100685.77
2019-06-08T03:41:29.787Z,100691.09
2019-06-08T03:42:34.520Z,100701.19
2019-06-08T03:43:40.697Z,100705.88
2019-06-08T03:44:46.262Z,100700.98
2019-06-08T03:45:51.486Z,100704.96
2019-06-08T03:46:56.108Z,100702.30
2019-06-08T03:48:01.060Z,100696.86
2019-06-08T03:49:06.023Z,100693.66
2019-06-08T03:50:12.483Z,100685.40
2019-06-08T03:51:17.155Z,100682.73
2019-06-08T03:52:22.163Z,100698.70
2019-06-08T03:53:27.135Z,100694.45
2019-06-08T03:54:32.235Z,100699.11
2019-06-08T03:55:38.017Z,100697.39
2019-06-08T03:56:44.177Z,100694.78
2019-06-08T03:57:49.023Z,100693.36
2019-06-08T03:58:53.844Z,100701.22
2019-06-08T03:59:58.636Z,100701.75
2019-06-08T04:01:03.947Z,100691.70
2019-06-08T04:02:08.630Z,100695.23
2019-06-08T04:03:13.613Z,100698.88
2019-06-08T04:04:18.416Z,100699.75
2019-06-08T04:05:23.296Z,100697.89
2019-06-08T04:06:28.206Z,100700.42
2019-06-08T04:07:33.260Z,100705.00
2019-06-08T04:08:40.196Z,100704.95
2019-06-08T04:09:45.911Z,100704.16
2019-06-08T04:10:51.851Z,100696.23
2019-06-08T04:11:56.772Z,100702.67
2019-06-08T04:13:01.581Z,100702.67
2019-06-08T04:14:06.843Z,100702.03
2019-06-08T04:15:12.167Z,100706.48
2019-06-08T04:16:19.640Z,100713.17
2019-06-08T04:17:27.162Z,100719.97
2019-06-08T04:18:31.960Z,100719.89
2019-06-08T04:19:38.105Z,100717.89
2019-06-08T04:20:45.804Z,100706.20
2019-06-08T04:21:50.599Z,100702.48
2019-06-08T04:22:56.705Z,100700.03
2019-06-08T04:24:01.312Z,100709.47
2019-06-08T04:25:09.309Z,100710.74
2019-06-08T04:26:13.979Z,100712.79
2019-06-08T04:27:18.818Z,100707.06
2019-06-08T04:28:23.666Z,100697.04
2019-06-08T04:29:28.613Z,100684.74
2019-06-08T04:30:36.035Z,100687.53
2019-06-08T04:31:41.883Z,100692.23
2019-06-08T04:32:47.606Z,100682.76
2019-06-08T04:33:53.364Z,100673.58
2019-06-08T04:34:58.852Z,100675.16
2019-06-08T04:36:04.049Z,100680.09
2019-06-08T04:37:09.048Z,100687.53
2019-06-08T04:38:14.522Z,100692.73
2019-06-08T04:39:19.663Z,100696.56
2019-06-08T04:40:24.549Z,100697.50
2019-06-08T04:41:29.504Z,100704.14
2019-06-08T04:42:34.955Z,100704.55
2019-06-08T04:43:42.633Z,100706.52
2019-06-08T04:44:49.330Z,100700.16
2019-06-08T04:45:54.427Z,100699.12
2019-06-08T04:46:59.685Z,100711.59
2019-06-08T04:48:04.379Z,100715.92
2019-06-08T04:49:09.503Z,100727.52
2019-06-08T04:50:22.586Z,100741.09
2019-06-08T04:51:20.853Z,100750.54
2019-06-08T04:52:26.077Z,100754.30
2019-06-08T04:53:31.002Z,100768.59
2019-06-08T04:54:35.891Z,100768.81
2019-06-08T04:55:43.170Z,100776.70
2019-06-08T04:56:49.115Z,100784.00
2019-06-08T04:57:54.288Z,100789.01
2019-06-08T04:58:59.344Z,100791.33
2019-06-08T05:00:11.954Z,100801.81
2019-06-08T05:01:12.054Z,100807.13
2019-06-08T05:02:16.866Z,100802.38
2019-06-08T05:03:23.480Z,100804.95
2019-06-08T05:04:28.299Z,100811.34
2019-06-08T05:05:32.905Z,100815.44
2019-06-08T05:06:39.049Z,100811.79
2019-06-08T05:07:46.026Z,100810.91
2019-06-08T05:08:51.442Z,100803.59
2019-06-08T05:09:56.042Z,100800.36
2019-06-08T05:11:00.862Z,100798.09
2019-06-08T05:12:05.537Z,100795.08
2019-06-08T05:13:10.363Z,100799.56
2019-06-08T05:14:14.978Z,100796.19
2019-06-08T05:15:20.019Z,100811.75
2019-06-08T05:16:24.749Z,100817.38
2019-06-08T05:17:29.567Z,100818.39
2019-06-08T05:18:34.359Z,100815.44
2019-06-08T05:19:41.083Z,100816.31
2019-06-08T05:20:47.946Z,100818.28
2019-06-08T05:21:52.780Z,100819.23
2019-06-08T05:22:58.374Z,100823.17
2019-06-08T05:24:03.226Z,100825.46
2019-06-08T05:25:07.889Z,100825.73
2019-06-08T05:26:13.670Z,100828.34
2019-06-08T05:27:18.854Z,100836.93
2019-06-08T05:28:23.765Z,100837.52
2019-06-08T05:29:28.641Z,100829.14
2019-06-08T05:30:33.576Z,100837.91
2019-06-08T05:31:39.367Z,100847.22
2019-06-08T05:32:45.533Z,100848.55
2019-06-08T05:33:50.257Z,100855.45
2019-06-08T05:34:55.136Z,100862.78
2019-06-08T05:35:59.735Z,100859.41
2019-06-08T05:37:05.073Z,100863.40
2019-06-08T05:38:09.693Z,100865.11
2019-06-08T05:39:14.546Z,100868.30
2019-06-08T05:40:19.379Z,100866.85
2019-06-08T05:41:24.472Z,100871.11
2019-06-08T05:42:29.258Z,100865.72
2019-06-08T05:43:34.098Z,100868.19
2019-06-08T05:44:39.591Z,100869.44
2019-06-08T05:45:45.701Z,100871.97
2019-06-08T05:46:50.710Z,100865.39
2019-06-08T05:47:55.526Z,100867.77
2019-06-08T05:49:00.150Z,100871.67
2019-06-08T05:50:09.652Z,100870.52
2019-06-08T05:51:14.483Z,100868.99
2019-06-08T05:52:19.338Z,100864.25
2019-06-08T05:53:23.942Z,100868.51
2019-06-08T05:54:28.757Z,100868.23
2019-06-08T05:55:33.802Z,100875.83
2019-06-08T05:56:39.793Z,100874.62
2019-06-08T05:57:44.464Z,100866.25
2019-06-08T05:58:50.376Z,100867.61
2019-06-08T05:59:55.067Z,100868.98
2019-06-08T06:00:59.885Z,100872.65
2019-06-08T06:02:04.561Z,100873.52
2019-06-08T06:03:09.440Z,100882.30
2019-06-08T06:04:14.058Z,100892.37
2019-06-08T06:05:19.444Z,100889.88
2019-06-08T06:06:24.831Z,100898.41
2019-06-08T06:07:29.632Z,100903.06
2019-06-08T06:08:34.527Z,100904.60
2019-06-08T06:09:40.988Z,100906.02
2019-06-08T06:10:46.917Z,100900.53
2019-06-08T06:11:53.031Z,100898.28
2019-06-08T06:12:57.749Z,100899.08
2019-06-08T06:14:02.852Z,100897.33
2019-06-08T06:15:08.078Z,100894.08
2019-06-08T06:16:13.258Z,100888.55
2019-06-08T06:17:18.071Z,100884.50
2019-06-08T06:18:23.020Z,100892.00
2019-06-08T06:19:27.715Z,100900.44
2019-06-08T06:20:32.924Z,100896.15
2019-06-08T06:21:37.644Z,100908.23
2019-06-08T06:22:43.974Z,100904.48
2019-06-08T06:23:49.327Z,100903.52
2019-06-08T06:24:54.209Z,100904.78
2019-06-08T06:25:58.848Z,100902.30
2019-06-08T06:27:03.845Z,100901.73
2019-06-08T06:28:08.444Z,100892.21
2019-06-08T06:29:13.720Z,100890.23
2019-06-08T06:30:18.590Z,100892.78
2019-06-08T06:31:23.391Z,100905.58
2019-06-08T06:32:28.273Z,100914.70
2019-06-08T06:33:33.203Z,100910.73
2019-06-08T06:34:38.033Z,100911.29
2019-06-08T06:35:43.791Z,100909.36
2019-06-08T06:36:48.483Z,100913.27
2019-06-08T06:37:53.571Z,100908.38
2019-06-08T06:38:58.327Z,100908.55
2019-06-08T06:40:03.594Z,100908.50
2019-06-08T06:41:08.324Z,100923.08
2019-06-08T06:42:13.145Z,100925.52
2019-06-08T06:43:17.741Z,100924.73
2019-06-08T06:44:22.643Z,100916.08
2019-06-08T06:45:28.451Z,100916.23
2019-06-08T06:46:33.454Z,100909.64
2019-06-08T06:47:38.330Z,100914.44
2019-06-08T06:48:44.027Z,100917.83
2019-06-08T06:49:48.634Z,100906.05
2019-06-08T06:50:53.535Z,100920.25
2019-06-08T06:51:58.137Z,100914.74
2019-06-08T06:53:02.946Z,100913.41
2019-06-08T06:54:07.719Z,100918.09
2019-06-08T06:55:12.827Z,100917.64
2019-06-08T06:56:17.421Z,100920.08
2019-06-08T06:57:22.238Z,100919.06
2019-06-08T06:58:26.860Z,100920.22
2019-06-08T06:59:31.778Z,100918.59
2019-06-08T07:00:36.522Z,100909.31
2019-06-08T07:01:41.456Z,100907.16
2019-06-08T07:02:47.644Z,100910.34
2019-06-08T07:03:54.241Z,100916.58
2019-06-08T07:04:59.257Z,100928.80
2019-06-08T07:06:04.768Z,100932.25
2019-06-08T07:07:09.369Z,100933.55
2019-06-08T07:08:14.508Z,100929.19
2019-06-08T07:09:19.430Z,100936.89
2019-06-08T07:10:24.265Z,100937.45
2019-06-08T07:11:28.865Z,100940.85
2019-06-08T07:12:33.711Z,100943.33
2019-06-08T07:13:38.348Z,100941.22
2019-06-08T07:14:43.261Z,100953.17
2019-06-08T07:15:51.432Z,100954.09
2019-06-08T07:16:54.564Z,100950.44
2019-06-08T07:17:59.739Z,100947.88
2019-06-08T07:19:04.979Z,100953.21
2019-06-08T07:20:09.841Z,100957.55
2019-06-08T07:21:15.008Z,100957.19
2019-06-08T07:22:19.678Z,100954.52
2019-06-08T07:23:25.291Z,100955.86
2019-06-08T07:24:29.894Z,100965.90
2019-06-08T07:25:34.737Z,100972.80
2019-06-08T07:26:39.336Z,100972.98
2019-06-08T07:27:44.440Z,100968.80
2019-06-08T07:28:49.425Z,100961.28
2019-06-08T07:29:56.026Z,100961.20
2019-06-08T07:31:00.623Z,100965.75
2019-06-08T07:32:05.448Z,100977.02
2019-06-08T07:33:10.044Z,100967.78
2019-06-08T07:34:14.863Z,100963.14
2019-06-08T07:35:19.540Z,100962.84
2019-06-08T07:36:24.487Z,100957.06
2019-06-08T07:37:29.238Z,100954.20
2019-06-08T07:38:34.157Z,100958.91
2019-06-08T07:39:38.758Z,100956.59
2019-06-08T07:40:43.603Z,100960.80
2019-06-08T07:41:49.072Z,100960.91
2019-06-08T07:42:56.560Z,100956.08
2019-06-08T07:44:01.377Z,100962.63
2019-06-08T07:45:07.687Z,100968.23
2019-06-08T07:46:12.722Z,100972.23
2019-06-08T07:47:17.563Z,100971.40
2019-06-08T07:48:22.159Z,100983.89
2019-06-08T07:49:27.036Z,100980.91
2019-06-08T07:50:31.604Z,100978.65
2019-06-08T07:51:36.559Z,100985.39
2019-06-08T07:52:41.160Z,100988.69
2019-06-08T07:53:47.062Z,100997.44
2019-06-08T07:54:52.824Z,100996.95
2019-06-08T07:55:58.251Z,100999.41
2019-06-08T07:57:02.857Z,100997.94
2019-06-08T07:58:07.718Z,100996.58
2019-06-08T07:59:12.385Z,100996.89
2019-06-08T08:00:17.844Z,101000.70
2019-06-08T08:01:35.328Z,101006.37
2019-06-08T08:02:30.715Z,101001.69
2019-06-08T08:03:37.020Z,101012.42
2019-06-08T08:04:41.844Z,101009.06
2019-06-08T08:05:48.088Z,101018.27
2019-06-08T08:06:54.433Z,101014.74
2019-06-08T08:07:59.131Z,101027.06
2019-06-08T08:09:07.047Z,101022.02
2019-06-08T08:10:12.179Z,101039.05
2019-06-08T08:11:17.136Z,101024.28
2019-06-08T08:12:21.813Z,101027.39
2019-06-08T08:13:26.637Z,101040.59
2019-06-08T08:14:31.583Z,101034.91
2019-06-08T08:15:36.440Z,101016.89
2019-06-08T08:16:41.040Z,101023.06
2019-06-08T08:17:45.935Z,101025.44
2019-06-08T08:18:51.503Z,101018.55
2019-06-08T08:19:57.299Z,101020.34
2019-06-08T08:21:09.169Z,101029.73
2019-06-08T08:22:22.137Z,101040.48
2019-06-08T08:23:17.384Z,101041.66
2019-06-08T08:24:22.226Z,101047.51
2019-06-08T08:25:28.169Z,101046.94
2019-06-08T08:26:34.562Z,101059.44
2019-06-08T08:27:39.361Z,101058.23
2019-06-08T08:28:44.246Z,101052.84
2019-06-08T08:29:49.944Z,101053.61
2019-06-08T08:30:56.164Z,101051.51
2019-06-08T08:32:02.134Z,101039.05
2019-06-08T08:33:07.850Z,101033.19
2019-06-08T08:34:18.297Z,101032.74
2019-06-08T08:36:18.026Z,101036.75
2019-06-08T08:37:22.468Z,101041.34
2019-06-08T08:38:27.269Z,101032.22
2019-06-08T08:39:32.639Z,101043.06
2019-06-08T08:40:38.789Z,101038.19
2019-06-08T08:41:44.412Z,101038.40
2019-06-08T08:42:50.538Z,101040.17
2019-06-08T08:43:58.418Z,101040.00
2019-06-08T08:45:05.141Z,101033.73
2019-06-08T08:46:08.525Z,101033.47
2019-06-08T08:47:12.948Z,101036.64
2019-06-08T08:48:25.254Z,101045.86
2019-06-08T08:49:24.062Z,101045.99
2019-06-08T08:50:29.112Z,101045.84
2019-06-08T08:51:33.620Z,101036.61
2019-06-08T08:52:40.955Z,101034.47
2019-06-08T08:53:44.945Z,101037.43
2019-06-08T08:54:51.327Z,101039.66
2019-06-08T08:55:59.679Z,101046.17
2019-06-08T08:57:05.112Z,101041.27
2019-06-08T08:58:08.948Z,101045.48
2019-06-08T08:59:14.250Z,101048.70
2019-06-08T09:00:19.503Z,101036.13
2019-06-08T09:02:11.374Z,101030.52
2019-06-08T09:03:27.827Z,101041.80
2019-06-08T09:04:21.078Z,101031.36
2019-06-08T09:05:28.123Z,101036.27
2019-06-08T09:06:32.646Z,101027.05
2019-06-08T09:07:38.536Z,101029.28
2019-06-08T09:08:43.157Z,101018.97
2019-06-08T09:09:48.390Z,101013.58
2019-06-08T09:10:53.422Z,101015.53
2019-06-08T09:12:02.221Z,101012.06
2019-06-08T09:13:04.850Z,101005.30
2019-06-08T09:14:14.120Z,101002.63
2019-06-08T09:15:16.053Z,101006.48
2019-06-08T09:16:21.439Z,101002.60
2019-06-08T09:17:27.881Z,100993.40
2019-06-08T09:18:32.581Z,100997.16
2019-06-08T09:19:38.217Z,100994.65
2019-06-08T09:20:43.814Z,100986.83
2019-06-08T09:21:48.374Z,100976.23
2019-06-08T09:23:01.706Z,100969.25
2019-06-08T09:24:02.595Z,100987.11
2019-06-08T09:25:08.753Z,100986.79
2019-06-08T09:26:14.349Z,101014.59
2019-06-08T09:27:19.638Z,101040.98
2019-06-08T09:28:24.499Z,101061.52
2019-06-08T09:29:29.500Z,101076.56
2019-06-08T09:30:34.187Z,101072.14
2019-06-08T09:31:39.440Z,101072.23
2019-06-08T09:32:43.867Z,101068.46
2019-06-08T09:34:06.736Z,101070.12
2019-06-08T09:34:57.170Z,101069.48
2019-06-08T09:36:04.524Z,101072.56
2019-06-08T09:37:08.631Z,101074.44
2019-06-08T09:38:13.714Z,101078.88
2019-06-08T09:39:18.763Z,101083.78
2019-06-08T09:40:25.916Z,101078.59
2019-06-08T09:41:31.282Z,101067.05
2019-06-08T09:42:36.659Z,101065.11
2019-06-08T09:43:41.148Z,101073.91
2019-06-08T09:44:48.289Z,101073.69
2019-06-08T09:45:53.816Z,101077.91
2019-06-08T09:47:05.662Z,101081.02
2019-06-08T09:48:09.231Z,101085.05
2019-06-08T09:49:13.428Z,101095.23
2019-06-08T09:50:18.698Z,101087.77
2019-06-08T09:51:23.835Z,101079.59
2019-06-08T09:52:28.380Z,101079.23
2019-06-08T09:53:37.589Z,101078.88
2019-06-08T09:54:39.593Z,101083.67
2019-06-08T09:55:44.977Z,101065.66
2019-06-08T09:56:49.705Z,101067.23
2019-06-08T09:57:58.964Z,101064.52
2019-06-08T09:59:03.836Z,101059.21
2019-06-08T10:00:18.029Z,101066.95
2019-06-08T10:01:18.432Z,101073.31
2019-06-08T10:02:23.400Z,101075.45
2019-06-08T10:03:30.753Z,101073.47
2019-06-08T10:04:34.654Z,101081.09
2019-06-08T10:05:39.079Z,101087.08
2019-06-08T10:06:44.506Z,101098.17
2019-06-08T10:07:49.095Z,101088.73
2019-06-08T10:08:54.354Z,101089.10
2019-06-08T10:10:02.246Z,101077.27
2019-06-08T10:11:07.322Z,101056.11
2019-06-08T10:12:11.949Z,101048.00
2019-06-08T10:13:22.853Z,101056.25
2019-06-08T10:14:28.200Z,101074.52
2019-06-08T10:15:33.823Z,101101.91
2019-06-08T10:16:38.553Z,101114.83
2019-06-08T10:17:44.648Z,101119.80
2019-06-08T10:18:51.498Z,101130.58
2019-06-08T10:20:00.243Z,101134.58
2019-06-08T10:21:03.455Z,101136.00
2019-06-08T10:22:08.758Z,101138.59
2019-06-08T10:23:29.911Z,101137.59
2019-06-08T10:24:20.281Z,101135.45
2019-06-08T10:25:24.701Z,101129.38
2019-06-08T10:26:29.693Z,101136.05
2019-06-08T10:27:34.453Z,101132.72
2019-06-08T10:28:39.738Z,101129.17
2019-06-08T10:29:44.143Z,101137.75
2019-06-08T10:30:49.224Z,101139.34
2019-06-08T10:31:53.707Z,101137.72
2019-06-08T10:33:01.815Z,101138.34
2019-06-08T10:34:08.491Z,101143.15
2019-06-08T10:35:12.351Z,101127.23
2019-06-08T10:36:18.324Z,101119.13
2019-06-08T10:37:23.348Z,101111.95
2019-06-08T10:38:28.946Z,101104.37
2019-06-08T10:39:34.059Z,101109.31
2019-06-08T10:40:40.257Z,101105.69
2019-06-08T10:41:45.309Z,101115.69
2019-06-08T10:42:49.799Z,101116.96
2019-06-08T10:43:54.897Z,101121.27
2019-06-08T10:45:04.098Z,101118.20
2019-06-08T10:46:14.032Z,101105.22
2019-06-08T10:47:12.482Z,101090.34
2019-06-08T10:48:17.998Z,101093.84
2019-06-08T10:49:22.818Z,101085.97
2019-06-08T10:50:28.993Z,101073.16
2019-06-08T10:51:33.443Z,101068.77
2019-06-08T10:52:39.112Z,101066.48
2019-06-08T10:53:49.101Z,101079.38
2019-06-08T10:54:50.767Z,101100.20
2019-06-08T10:55:57.846Z,101112.27
2019-06-08T10:57:05.067Z,101113.34
2019-06-08T10:58:10.915Z,101114.89
2019-06-08T10:59:16.271Z,101113.24
2019-06-08T11:00:24.148Z,101118.67
2019-06-08T11:01:29.534Z,101114.75
2019-06-08T11:02:33.998Z,101119.92
2019-06-08T11:03:39.139Z,101121.90
2019-06-08T11:04:43.725Z,101124.88
2019-06-08T11:05:51.298Z,101116.77
2019-06-08T11:06:58.304Z,101125.84
2019-06-08T11:08:02.965Z,101127.18
2019-06-08T11:09:13.336Z,101131.47
2019-06-08T11:10:15.917Z,101128.98
2019-06-08T11:11:20.681Z,101135.44
2019-06-08T11:12:28.140Z,101130.62
2019-06-08T11:13:31.918Z,101132.91
2019-06-08T11:14:38.243Z,101120.16
2019-06-08T11:15:43.088Z,101134.67
2019-06-08T11:16:48.098Z,101122.18
2019-06-08T11:17:52.568Z,101116.64
2019-06-08T11:18:59.071Z,101116.05
2019-06-08T11:20:07.369Z,101120.31
2019-06-08T11:21:12.901Z,101120.26
2019-06-08T11:22:18.035Z,101114.46
2019-06-08T11:23:23.252Z,101118.66
2019-06-08T11:24:28.943Z,101116.95
2019-06-08T11:25:34.212Z,101111.65
2019-06-08T11:26:40.377Z,101113.66
2019-06-08T11:27:47.522Z,101125.03
2019-06-08T11:28:51.754Z,101115.26
2019-06-08T11:29:57.545Z,101111.34
2019-06-08T11:31:02.091Z,101115.26
2019-06-08T11:32:10.921Z,101109.11
2019-06-08T11:33:13.410Z,101104.48
2019-06-08T11:34:21.573Z,101097.77
2019-06-08T11:35:24.601Z,101107.04
2019-06-08T11:36:29.712Z,101088.27
2019-06-08T11:37:34.169Z,101093.38
2019-06-08T11:38:39.373Z,101084.70
2019-06-08T11:39:44.793Z,101086.69
2019-06-08T11:40:49.835Z,101085.68
2019-06-08T11:41:54.496Z,101089.07
2019-06-08T11:43:00.412Z,101095.02
2019-06-08T11:44:07.133Z,101101.52
2019-06-08T11:45:13.279Z,101104.09
2019-06-08T11:46:21.350Z,101113.73
2019-06-08T11:47:24.740Z,101092.50
2019-06-08T11:48:29.166Z,101098.75
2019-06-08T11:49:34.185Z,101094.72
2019-06-08T11:50:42.065Z,101089.20
2019-06-08T11:51:47.853Z,101093.53
2019-06-08T11:52:52.599Z,101085.95
2019-06-08T11:53:59.379Z,101102.23
2019-06-08T11:55:05.415Z,101085.92
2019-06-08T11:56:13.313Z,101091.50
2019-06-08T11:57:17.767Z,101084.55
2019-06-08T11:58:24.801Z,101079.54
2019-06-08T11:59:30.348Z,101081.33
2019-06-08T12:01:04.625Z,101084.98
2019-06-08T12:02:10.505Z,101089.53
2019-06-08T12:03:14.742Z,101097.49
2019-06-08T12:04:20.142Z,101099.16
2019-06-08T12:05:27.758Z,101097.56
2019-06-08T12:06:31.547Z,101098.41
2019-06-08T12:07:38.205Z,101106.30
2019-06-08T12:08:42.657Z,101103.34
2019-06-08T12:09:50.143Z,101100.12
2019-06-08T12:10:54.224Z,101099.47
2019-06-08T12:11:59.224Z,101097.87
2019-06-08T12:13:04.708Z,101094.75
2019-06-08T12:14:11.435Z,101107.91
2019-06-08T12:15:18.149Z,101104.77
2019-06-08T12:16:22.652Z,101103.29
2019-06-08T12:17:27.625Z,101105.07
2019-06-08T12:18:32.646Z,101096.36
2019-06-08T12:19:37.854Z,101089.80
2019-06-08T12:20:42.940Z,101098.01
2019-06-08T12:21:49.598Z,101091.77
2019-06-08T12:22:54.125Z,101091.14
2019-06-08T12:23:58.537Z,101101.50
2019-06-08T12:25:03.873Z,101105.94
2019-06-08T12:26:10.212Z,101111.46
2019-06-08T12:27:26.898Z,101111.98
2019-06-08T12:28:21.320Z,101106.41